Latest Weather Observations for Dartmoor

IDV60801

Issued at 10:02 pm EST Friday 28 April 2017 (issued every 30 minutes, with the page automatically refreshed every 10 minutes)

About weather observations | Map of weather stations | Latest weather observations for VIC | Other Formats
Station Details ID: 090194 Name: DARTMOOR Lat: -37.92 Lon: 141.26 Height: 51.0 m
Data from the previous 72 hours. | See also: Recent months at Dartmoor
Date/Time
EST
Temp
°C
App
Temp
°C
Dew
Point
°C
Rel
Hum
%
Delta-T
°C
Wind Press
QNH
hPa
Press
MSL
hPa
Rain since
9am
mm
Dir  Spd
km/h
Gust
km/h
Spd
kts
Gust
kts
28/10:00pm 13.8 13.5 13.3 97 0.3 WNW 7 9 4 5 1024.1 1024.1 0.8
28/09:30pm 13.9 13.2 13.3 96 0.3 WNW 9 15 5 8 1024.1 1024.1 0.8
28/09:00pm 13.9 13.8 13.3 96 0.3 WNW 6 9 3 5 1024.1 1024.1 0.6
28/08:30pm 14.0 13.9 13.4 96 0.3 WNW 6 11 3 6 1024.0 1024.0 0.6
28/08:00pm 13.9 13.6 13.3 96 0.3 WNW 7 13 4 7 1024.1 1024.1 0.6
28/07:30pm 14.1 13.4 13.3 95 0.4 WNW 9 15 5 8 1024.2 1024.2 0.6
28/07:00pm 14.2 14.1 13.2 94 0.6 WNW 6 9 3 5 1024.1 1024.1 0.6
28/06:30pm 14.4 14.0 13.1 92 0.7 W 7 15 4 8 1024.0 1024.0 0.6
28/06:00pm 15.0 13.8 12.7 86 1.3 W 11 19 6 10 1023.9 1023.9 0.4
28/05:30pm 15.2 14.4 12.9 86 1.3 WNW 9 17 5 9 1023.7 1023.7 0.4
28/05:00pm 15.4 14.2 12.9 85 1.4 WNW 11 17 6 9 1023.5 1023.5 0.4
28/04:30pm 15.6 14.4 12.9 84 1.5 WNW 11 19 6 10 1023.7 1023.7 0.4
28/04:00pm 15.6 13.7 12.9 84 1.5 W 15 24 8 13 1023.7 1023.7 0.4
28/03:30pm 15.4 14.0 13.4 88 1.1 W 13 20 7 11 1023.7 1023.7 0.4
28/03:00pm 15.5 14.3 14.0 91 0.8 W 13 22 7 12 1023.7 1023.7 0.4
28/02:30pm 15.8 13.8 14.0 89 1.0 W 17 30 9 16 1023.8 1023.8 0.4
28/02:00pm 16.3 14.7 14.0 86 1.3 WSW 15 24 8 13 1023.7 1023.7 0.4
28/01:30pm 16.4 14.3 14.6 89 1.0 W 19 30 10 16 1023.8 1023.8 0.4
28/01:00pm 16.3 15.4 14.8 91 0.9 WSW 13 24 7 13 1024.0 1024.0 0.4
28/12:30pm 15.7 13.2 14.2 91 0.9 WSW 20 32 11 17 1024.5 1024.5 0.2
28/12:00pm 15.7 14.7 14.7 94 0.6 W 13 19 7 10 1024.9 1024.9 0.2
28/11:30am 15.5 14.6 14.9 96 0.3 W 13 20 7 11 1025.2 1025.2 0.2
28/11:00am 14.9 13.5 14.4 97 0.3 WSW 15 24 8 13 1025.1 1025.1 0.2
28/10:30am 15.3 14.5 15.0 98 0.2 W 13 20 7 11 1025.2 1025.2 0.2
28/10:00am 15.3 14.9 15.1 99 0.1 W 11 19 6 10 1025.1 1025.1 0.2
28/09:30am 14.4 13.7 14.2 99 0.1 W 11 20 6 11 1025.1 1025.1 0.0
28/09:00am 14.2 13.4 14.0 99 0.1 W 11 17 6 9 1024.9 1024.9 2.0
28/08:30am 13.8 13.2 13.6 99 0.1 WNW 9 15 5 8 1024.6 1024.6 2.0
28/08:00am 13.5 13.2 13.3 99 0.1 NW 7 9 4 5 1024.3 1024.3 2.0
28/07:30am 13.2 12.8 13.0 99 0.1 NW 7 9 4 5 1023.9 1023.9 1.8
28/07:00am 13.0 12.5 12.8 99 0.1 NW 7 11 4 6 1023.8 1023.8 1.8
28/06:30am 12.9 12.0 12.7 99 0.1 NW 9 13 5 7 1023.8 1023.8 1.8
28/06:00am 12.6 12.0 12.4 99 0.1 NW 7 11 4 6 1023.6 1023.6 1.8
28/05:30am 12.5 11.5 12.3 99 0.1 NW 9 15 5 8 1023.6 1023.6 1.8
28/05:00am 12.4 11.4 12.2 99 0.1 NW 9 13 5 7 1023.3 1023.3 1.6
28/04:30am 12.1 11.0 11.9 99 0.1 NW 9 11 5 6 1023.3 1023.3 1.6
28/04:00am 12.0 10.9 11.8 99 0.1 NW 9 13 5 7 1023.3 1023.3 1.4
28/03:30am 11.9 10.7 11.7 99 0.1 NW 9 13 5 7 1023.4 1023.4 1.2
28/03:00am 11.6 10.3 11.3 98 0.2 NW 9 13 5 7 1023.5 1023.5 1.0
28/02:30am 11.6 9.9 11.3 98 0.2 NNW 11 15 6 8 1023.8 1023.8 0.6
28/02:00am 11.4 10.1 11.1 98 0.2 NNW 9 13 5 7 1023.7 1023.7 0.6
28/01:30am 11.1 9.7 10.8 98 0.2 NW 9 11 5 6 1023.8 1023.8 0.6
28/01:00am 11.2 9.4 10.9 98 0.2 NNW 11 13 6 7 1023.7 1023.7 0.6
28/12:30am 11.1 9.3 10.8 98 0.2 NW 11 15 6 8 1024.0 1024.0 0.6
28/12:00am 11.5 10.2 11.2 98 0.2 NW 9 13 5 7 1024.1 1024.1 0.6
 
Date/Time
EST
Temp
°C
App
Temp
°C
Dew
Point
°C
Rel
Hum
%
Delta-T
°C
Wind Press
QNH
hPa
Press
MSL
hPa
Rain since
9am
mm
Dir  Spd
km/h
Gust
km/h
Spd
kts
Gust
kts
27/11:30pm 11.4 10.1 11.1 98 0.2 NW 9 13 5 7 1024.2 1024.2 0.6
27/11:00pm 11.3 9.9 11.0 98 0.2 NW 9 11 5 6 1024.4 1024.4 0.6
27/10:30pm 11.2 9.8 10.9 98 0.2 NW 9 13 5 7 1024.3 1024.3 0.6
27/10:00pm 11.1 9.6 10.6 97 0.3 NW 9 9 5 5 1024.4 1024.4 0.6
27/09:30pm 11.2 9.7 10.7 97 0.3 NW 9 11 5 6 1024.4 1024.4 0.6
27/09:00pm 11.0 9.5 10.4 96 0.3 NW 9 13 5 7 1024.4 1024.4 0.4
27/08:30pm 10.6 8.9 10.0 96 0.3 NW 9 11 5 6 1024.2 1024.2 0.4
27/08:00pm 11.0 9.7 10.1 94 0.5 WNW 7 11 4 6 1024.2 1024.2 0.4
27/07:30pm 11.5 10.0 10.4 93 0.6 NW 9 13 5 7 1024.2 1024.2 0.4
27/07:00pm 11.8 10.7 10.5 92 0.7 NW 7 9 4 5 1024.0 1024.0 0.4
27/06:30pm 11.7 10.4 10.1 90 0.8 NW 7 9 4 5 1024.0 1024.0 0.4
27/06:00pm 12.3 10.7 10.2 87 1.1 WNW 9 13 5 7 1023.8 1023.8 0.4
27/05:30pm 12.7 11.2 10.6 87 1.1 WNW 9 15 5 8 1023.7 1023.7 0.4
27/05:00pm 13.1 12.3 11.0 87 1.1 WNW 6 7 3 4 1023.9 1023.9 0.4
27/04:30pm 13.0 12.6 11.2 89 1.0 WNW 4 6 2 3 1024.0 1024.0 0.4
27/04:00pm 12.8 12.4 11.2 90 0.8 WNW 4 7 2 4 1024.1 1024.1 0.4
27/03:30pm 13.8 11.6 9.5 75 2.2 WSW 11 17 6 9 1024.3 1024.3 0.4
27/03:00pm 14.4 13.2 10.4 77 2.1 WSW 7 11 4 6 1024.3 1024.3 0.4
27/02:30pm 13.8 11.8 10.0 78 2.0 SW 11 22 6 12 1024.5 1024.5 0.4
27/02:00pm 14.7 12.4 8.9 68 2.9 WSW 11 22 6 12 1024.5 1024.5 0.4
27/01:30pm 13.8 11.1 8.8 72 2.5 WSW 13 19 7 10 1024.5 1024.5 0.4
27/01:00pm 14.5 12.0 9.7 73 2.5 WSW 13 20 7 11 1024.8 1024.8 0.4
27/12:30pm 14.0 12.3 9.8 76 2.2 WSW 9 17 5 9 1025.2 1025.2 0.4
27/12:00pm 13.6 11.8 11.0 84 1.4 WNW 11 17 6 9 1025.4 1025.4 0.4
27/11:30am 12.8 11.4 11.0 89 0.9 WNW 9 17 5 9 1025.8 1025.8 0.4
27/11:00am 11.5 9.4 9.8 89 0.9 W 11 19 6 10 1025.9 1025.9 0.4
27/10:30am 12.9 12.2 11.3 90 0.8 NNW 6 13 3 7 1025.6 1025.6 0.0
27/10:00am 11.3 10.2 10.5 95 0.4 NNW 7 11 4 6 1025.7 1025.7 0.0
27/09:30am 9.9 9.1 9.6 98 0.2 NNW 4 9 2 5 1025.8 1025.8 0.0
27/09:00am 9.5 8.6 9.2 98 0.1 N 4 6 2 3 1025.9 1025.9 2.2
27/08:30am 8.1 7.2 7.8 98 0.1 N 2 4 1 2 1025.5 1025.5 2.2
27/08:00am 7.3 6.2 7.0 98 0.1 E 2 4 1 2 1025.3 1025.3 2.2
27/07:30am 7.5 6.5 7.2 98 0.1 NNE 2 7 1 4 1025.0 1025.0 2.2
27/07:00am 7.2 5.3 6.9 98 0.1 NNW 6 9 3 5 1024.9 1024.9 2.2
27/06:30am 6.7 5.5 6.4 98 0.1 E 2 6 1 3 1024.7 1024.7 2.2
27/06:00am 6.5 4.5 6.2 98 0.1 NNW 6 7 3 4 1024.5 1024.5 2.2
27/05:30am 6.0 4.6 5.7 98 0.1 NNE 2 2 1 1 1024.2 1024.2 2.0
27/05:00am 5.7 3.9 5.3 97 0.2 NNE 4 4 2 2 1023.9 1023.9 1.8
27/04:30am 5.9 4.1 5.5 97 0.2 ENE 4 6 2 3 1023.7 1023.7 1.8
27/04:00am 6.6 5.3 6.2 97 0.2 E 2 4 1 2 1023.6 1023.6 1.8
27/03:30am 7.0 6.2 6.6 97 0.2 CALM 0 4 0 2 1023.7 1023.7 1.8
27/03:00am 6.5 4.8 5.9 96 0.3 N 4 7 2 4 1023.7 1023.7 1.8
27/02:30am 7.0 5.0 6.4 96 0.3 ESE 6 9 3 5 1023.9 1023.9 1.8
27/02:00am 7.2 6.4 6.6 96 0.3 CALM 0 0 0 0 1023.7 1023.7 1.8
27/01:30am 7.4 5.0 6.8 96 0.3 NW 9 13 5 7 1023.5 1023.5 1.8
27/01:00am 6.4 4.7 5.8 96 0.3 NW 4 7 2 4 1023.5 1023.5 1.6
27/12:30am 6.7 4.5 6.0 95 0.3 NW 7 7 4 4 1023.5 1023.5 1.6
27/12:00am 7.2 5.1 6.5 95 0.3 SSE 7 17 4 9 1023.5 1023.5 1.6
 
Date/Time
EST
Temp
°C
App
Temp
°C
Dew
Point
°C
Rel
Hum
%
Delta-T
°C
Wind Press
QNH
hPa
Press
MSL
hPa
Rain since
9am
mm
Dir  Spd
km/h
Gust
km/h
Spd
kts
Gust
kts
26/11:30pm 7.4 5.9 6.8 96 0.3 SW 4 6 2 3 1023.2 1023.2 1.6
26/11:00pm 6.7 5.0 6.0 95 0.3 WNW 4 9 2 5 1023.3 1023.3 1.4
26/10:30pm 6.1 3.9 5.4 95 0.3 ENE 6 9 3 5 1023.1 1023.1 1.0
26/10:00pm 6.2 4.4 5.3 94 0.4 NW 4 6 2 3 1022.9 1022.9 1.0
26/09:30pm 6.9 5.5 5.5 91 0.6 SW 2 4 1 2 1022.7 1022.7 1.0
26/09:00pm 8.2 6.0 6.3 88 0.9 S 7 17 4 9 1022.5 1022.5 1.0
26/08:30pm 7.0 5.4 4.3 83 1.2 S 2 4 1 2 1022.2 1022.2 0.8
26/08:00pm 8.2 5.9 5.0 80 1.4 WSW 6 7 3 4 1022.0 1022.0 0.8
26/07:30pm 8.6 6.8 5.2 79 1.5 SW 4 6 2 3 1021.7 1021.7 0.8
26/07:00pm 8.7 6.9 5.4 80 1.5 SW 4 6 2 3 1021.5 1021.5 0.8
26/06:30pm 8.8 6.6 5.4 79 1.5 SW 6 7 3 4 1021.2 1021.2 0.8
26/06:00pm 8.7 6.3 5.3 79 1.5 SW 7 13 4 7 1020.8 1020.8 0.8
26/05:30pm 9.2 6.2 5.8 79 1.6 SW 11 15 6 8 1020.7 1020.7 0.8
26/05:00pm 9.9 6.7 6.8 81 1.5 SW 13 17 7 9 1020.3 1020.3 0.8
26/04:30pm 9.4 7.4 7.2 86 1.0 SW 7 11 4 6 1020.0 1020.0 0.8
26/04:00pm 10.7 7.4 6.3 74 2.1 SW 13 19 7 10 1019.9 1019.9 0.6
26/03:30pm 10.9 6.2 5.9 71 2.3 SW 20 33 11 18 1019.7 1019.7 0.6
26/03:00pm 10.4 7.2 6.9 79 1.7 SW 13 20 7 11 1019.5 1019.5 0.6
26/02:30pm 9.6 4.6 6.5 81 1.4 SW 22 35 12 19 1019.5 1019.5 0.6
26/02:00pm 9.8 3.7 8.4 91 0.7 SSW 30 46 16 25 1019.3 1019.3 0.4
26/01:30pm 11.6 6.5 5.9 68 2.7 SW 22 43 12 23 1019.1 1019.1 0.2
26/01:00pm 9.9 3.1 5.3 73 2.1 SSW 30 48 16 26 1019.0 1019.0 0.2
26/12:30pm 12.7 6.8 3.9 55 4.0 SSW 24 43 13 23 1018.8 1018.8 0.2
26/12:12pm 12.7 5.7 4.2 56 3.9 SSW 30 50 16 27 1018.7 1018.7 0.2
26/12:00pm 12.2 6.3 3.9 57 3.7 SSW 24 35 13 19 1018.7 1018.7 0.2
26/11:41am 12.9 6.3 4.3 56 3.9 SSW 28 50 15 27 1018.6 1018.6 0.2
26/11:30am 12.2 4.7 1.2 47 4.7 S 30 44 16 24 1018.4 1018.4 0.2
26/11:00am 12.4 5.7 3.6 55 3.9 SSW 28 46 15 25 1018.1 1018.1 0.2
26/10:30am 11.2 5.8 4.7 64 2.9 SSW 22 30 12 16 1017.7 1017.7 0.2
26/10:00am 10.6 7.7 6.6 76 1.9 S 11 24 6 13 1017.4 1017.4 0.2
26/09:30am 9.8 7.4 6.9 82 1.4 SE 9 13 5 7 1016.8 1016.8 0.2
26/09:00am 10.0 6.7 6.5 79 1.6 S 13 28 7 15 1016.3 1016.3 22.0
26/08:30am 8.9 6.5 6.9 87 0.9 S 9 13 5 7 1015.6 1015.6 21.8
26/08:00am 7.7 5.2 6.5 92 0.6 SSW 9 17 5 9 1015.0 1015.0 21.8
26/07:30am 7.1 5.0 5.6 90 0.7 SSW 6 13 3 7 1014.3 1014.3 21.8
26/07:00am 7.9 1.6 5.5 85 1.1 S 28 44 15 24 1013.6 1013.6 21.6
26/06:57am 8.1 2.6 5.9 86 1.0 S 24 44 13 24 1013.5 1013.5 21.6
26/06:30am 6.8 4.6 5.3 90 0.7 SW 6 9 3 5 1012.7 1012.6 21.6
26/06:00am 7.1 4.3 5.3 88 0.8 SW 9 13 5 7 1012.1 1012.0 21.6
26/05:30am 7.9 1.8 6.7 92 0.6 S 28 59 15 32 1011.5 1011.4 21.4
26/05:24am 8.3 5.3 7.5 95 0.4 SSW 13 59 7 32 1012.0 1011.9 21.2
26/05:00am 8.1 5.4 7.5 96 0.3 WSW 11 19 6 10 1011.1 1011.0 21.0
26/04:30am 7.8 6.0 7.2 96 0.3 SSE 6 9 3 5 1010.2 1010.1 20.8
26/04:00am 7.7 5.0 7.3 97 0.2 SSW 11 19 6 10 1009.8 1009.7 20.6
26/03:30am 7.1 3.5 6.7 97 0.2 SW 15 24 8 13 1009.8 1009.7 20.0
26/03:00am 6.8 -0.4 6.1 95 0.3 WSW 33 54 18 29 1009.7 1009.6 18.0
26/02:55am 7.9 3.0 6.8 93 0.5 W 22 52 12 28 1009.3 1009.2 17.0
26/02:30am 8.8 7.6 7.9 94 0.4 SW 4 7 2 4 1008.8 1008.7 16.2
26/02:00am 9.1 7.0 8.2 94 0.4 WSW 9 15 5 8 1008.3 1008.2 12.2
26/01:30am 9.1 6.6 8.0 93 0.5 SW 11 19 6 10 1007.5 1007.5 10.8
26/01:00am 9.8 6.4 9.0 95 0.4 SW 17 26 9 14 1007.3 1007.3 10.6
26/12:30am 10.1 8.9 9.5 96 0.3 W 6 9 3 5 1007.0 1007.0 10.2
26/12:00am 10.3 9.1 9.7 96 0.3 WNW 6 9 3 5 1007.0 1007.0 10.0
 
Date/Time
EST
Temp
°C
App
Temp
°C
Dew
Point
°C
Rel
Hum
%
Delta-T
°C
Wind Press
QNH
hPa
Press
MSL
hPa
Rain since
9am
mm
Dir  Spd
km/h
Gust
km/h
Spd
kts
Gust
kts
25/11:30pm 10.3 8.5 9.5 95 0.4 WSW 9 19 5 10 1007.1 1007.1 9.6
25/11:00pm 10.7 6.2 9.9 95 0.4 SW 24 43 13 23 1007.4 1007.4 7.6
25/10:30pm 11.4 7.4 10.5 94 0.5 SW 22 37 12 20 1006.7 1006.7 5.4

Other Formats:

Comma delimited format used in spreadsheet applications
http://www.bom.gov.au/fwo/IDV60801/IDV60801.95822.axf

JavaScript Object Notation format (JSON) in row-major order
http://www.bom.gov.au/fwo/IDV60801/IDV60801.95822.json